sensor_id;sensor_type;location;lat;lon;timestamp;temperature;humidity
18794;DHT22;29610;49.022;12.114;2023-01-23T00:00:33;0.40;99.90
18794;DHT22;29610;49.022;12.114;2023-01-23T00:03:04;0.30;99.90
18794;DHT22;29610;49.022;12.114;2023-01-23T00:05:32;0.30;99.90
18794;DHT22;29610;49.022;12.114;2023-01-23T00:08:01;0.30;99.90
18794;DHT22;29610;49.022;12.114;2023-01-23T00:10:31;0.40;99.90
18794;DHT22;29610;49.022;12.114;2023-01-23T00:13:00;0.40;99.90
18794;DHT22;29610;49.022;12.114;2023-01-23T00:15:28;0.40;99.90
18794;DHT22;29610;49.022;12.114;2023-01-23T00:17:59;0.30;99.90
18794;DHT22;29610;49.022;12.114;2023-01-23T00:20:27;0.40;99.90
18794;DHT22;29610;49.022;12.114;2023-01-23T00:22:56;0.40;99.90
18794;DHT22;29610;49.022;12.114;2023-01-23T00:25:24;0.30;99.90
18794;DHT22;29610;49.022;12.114;2023-01-23T00:27:55;0.30;99.90
18794;DHT22;29610;49.022;12.114;2023-01-23T00:30:23;0.30;99.90
18794;DHT22;29610;49.022;12.114;2023-01-23T00:32:52;0.30;99.90
18794;DHT22;29610;49.022;12.114;2023-01-23T00:35:21;0.30;99.90
18794;DHT22;29610;49.022;12.114;2023-01-23T00:37:52;0.30;99.90
18794;DHT22;29610;49.022;12.114;2023-01-23T00:40:21;0.50;99.90
18794;DHT22;29610;49.022;12.114;2023-01-23T00:42:49;0.40;99.90
18794;DHT22;29610;49.022;12.114;2023-01-23T00:45:19;0.70;99.90
18794;DHT22;29610;49.022;12.114;2023-01-23T00:47:50;0.30;99.90
18794;DHT22;29610;49.022;12.114;2023-01-23T00:50:19;0.20;99.90
18794;DHT22;29610;49.022;12.114;2023-01-23T00:52:47;0.60;99.90
18794;DHT22;29610;49.022;12.114;2023-01-23T00:55:16;0.40;99.90
18794;DHT22;29610;49.022;12.114;2023-01-23T00:57:45;0.30;99.90
18794;DHT22;29610;49.022;12.114;2023-01-23T01:00:15;0.20;99.90
18794;DHT22;29610;49.022;12.114;2023-01-23T01:02:46;0.20;99.90
18794;DHT22;29610;49.022;12.114;2023-01-23T01:05:15;0.20;99.90
18794;DHT22;29610;49.022;12.114;2023-01-23T01:07:46;0.20;99.90
18794;DHT22;29610;49.022;12.114;2023-01-23T01:10:15;0.30;99.90
18794;DHT22;29610;49.022;12.114;2023-01-23T01:12:45;0.30;99.90
18794;DHT22;29610;49.022;12.114;2023-01-23T01:15:14;0.30;99.90
18794;DHT22;29610;49.022;12.114;2023-01-23T01:17:42;0.30;99.90
18794;DHT22;29610;49.022;12.114;2023-01-23T01:20:13;0.30;99.90
18794;DHT22;29610;49.022;12.114;2023-01-23T01:22:46;0.30;99.90
18794;DHT22;29610;49.022;12.114;2023-01-23T01:25:14;0.30;99.90
18794;DHT22;29610;49.022;12.114;2023-01-23T01:27:43;0.20;99.90
18794;DHT22;29610;49.022;12.114;2023-01-23T01:30:13;0.20;99.90
18794;DHT22;29610;49.022;12.114;2023-01-23T01:32:42;0.30;99.90
18794;DHT22;29610;49.022;12.114;2023-01-23T01:35:14;0.30;99.90
18794;DHT22;29610;49.022;12.114;2023-01-23T01:37:42;0.30;99.90
18794;DHT22;29610;49.022;12.114;2023-01-23T01:40:14;0.30;99.90
18794;DHT22;29610;49.022;12.114;2023-01-23T01:42:48;0.20;99.90
18794;DHT22;29610;49.022;12.114;2023-01-23T01:45:58;0.10;99.90
18794;DHT22;29610;49.022;12.114;2023-01-23T01:48:37;0.10;99.90
18794;DHT22;29610;49.022;12.114;2023-01-23T01:51:14;0.10;99.90
18794;DHT22;29610;49.022;12.114;2023-01-23T01:53:49;0.10;99.90
18794;DHT22;29610;49.022;12.114;2023-01-23T01:56:25;0.30;99.90
18794;DHT22;29610;49.022;12.114;2023-01-23T01:58:57;0.20;99.90
18794;DHT22;29610;49.022;12.114;2023-01-23T02:01:27;0.10;99.90
18794;DHT22;29610;49.022;12.114;2023-01-23T02:04:00;1.00;99.90
18794;DHT22;29610;49.022;12.114;2023-01-23T02:06:30;0.00;99.90
18794;DHT22;29610;49.022;12.114;2023-01-23T02:09:03;-0.10;99.90
18794;DHT22;29610;49.022;12.114;2023-01-23T02:11:36;0.20;99.90
18794;DHT22;29610;49.022;12.114;2023-01-23T02:14:05;0.00;99.90
18794;DHT22;29610;49.022;12.114;2023-01-23T02:16:35;-0.20;99.90
18794;DHT22;29610;49.022;12.114;2023-01-23T02:19:21;-0.20;99.90
18794;DHT22;29610;49.022;12.114;2023-01-23T02:22:06;-0.20;99.90
18794;DHT22;29610;49.022;12.114;2023-01-23T02:24:49;-0.20;99.90
18794;DHT22;29610;49.022;12.114;2023-01-23T02:27:27;-0.20;99.90
18794;DHT22;29610;49.022;12.114;2023-01-23T02:29:57;-0.20;99.90
18794;DHT22;29610;49.022;12.114;2023-01-23T02:32:28;-0.20;99.90
18794;DHT22;29610;49.022;12.114;2023-01-23T02:35:00;-0.30;99.90
18794;DHT22;29610;49.022;12.114;2023-01-23T02:37:41;0.50;99.90
18794;DHT22;29610;49.022;12.114;2023-01-23T02:40:13;-0.20;99.90
18794;DHT22;29610;49.022;12.114;2023-01-23T02:42:45;-0.30;99.90
18794;DHT22;29610;49.022;12.114;2023-01-23T02:45:16;-0.30;99.90
18794;DHT22;29610;49.022;12.114;2023-01-23T02:47:46;-0.40;99.90
18794;DHT22;29610;49.022;12.114;2023-01-23T02:50:15;-0.40;99.90
18794;DHT22;29610;49.022;12.114;2023-01-23T02:52:45;-0.40;99.90
18794;DHT22;29610;49.022;12.114;2023-01-23T02:55:16;-0.40;99.90
18794;DHT22;29610;49.022;12.114;2023-01-23T02:57:46;-0.50;99.90
18794;DHT22;29610;49.022;12.114;2023-01-23T03:00:15;-0.50;99.90
18794;DHT22;29610;49.022;12.114;2023-01-23T03:02:48;-0.50;99.90
18794;DHT22;29610;49.022;12.114;2023-01-23T03:05:18;-0.50;99.90
18794;DHT22;29610;49.022;12.114;2023-01-23T03:07:46;-0.60;99.90
18794;DHT22;29610;49.022;12.114;2023-01-23T03:10:15;-0.60;99.90
18794;DHT22;29610;49.022;12.114;2023-01-23T03:12:46;-0.60;99.90
18794;DHT22;29610;49.022;12.114;2023-01-23T03:15:15;-0.60;99.90
18794;DHT22;29610;49.022;12.114;2023-01-23T03:17:44;-0.60;99.90
18794;DHT22;29610;49.022;12.114;2023-01-23T03:20:16;-0.60;99.90
18794;DHT22;29610;49.022;12.114;2023-01-23T03:22:45;0.10;99.90
18794;DHT22;29610;49.022;12.114;2023-01-23T03:25:14;-0.10;99.90
18794;DHT22;29610;49.022;12.114;2023-01-23T03:27:43;-0.80;99.90
18794;DHT22;29610;49.022;12.114;2023-01-23T03:30:15;0.00;99.90
18794;DHT22;29610;49.022;12.114;2023-01-23T03:32:44;-0.90;99.90
18794;DHT22;29610;49.022;12.114;2023-01-23T03:35:15;-1.00;99.90
18794;DHT22;29610;49.022;12.114;2023-01-23T03:37:48;-1.00;99.90
18794;DHT22;29610;49.022;12.114;2023-01-23T03:40:21;-1.00;99.90
18794;DHT22;29610;49.022;12.114;2023-01-23T03:43:12;-1.00;99.90
18794;DHT22;29610;49.022;12.114;2023-01-23T03:45:48;-1.10;99.90
18794;DHT22;29610;49.022;12.114;2023-01-23T03:48:17;-1.10;99.90
18794;DHT22;29610;49.022;12.114;2023-01-23T03:50:46;-1.10;99.90
18794;DHT22;29610;49.022;12.114;2023-01-23T03:53:16;-1.70;99.90
18794;DHT22;29610;49.022;12.114;2023-01-23T03:55:45;-1.10;99.90
18794;DHT22;29610;49.022;12.114;2023-01-23T03:58:14;-1.10;99.90
18794;DHT22;29610;49.022;12.114;2023-01-23T04:00:45;-0.60;99.90
18794;DHT22;29610;49.022;12.114;2023-01-23T04:03:15;-1.10;99.90
18794;DHT22;29610;49.022;12.114;2023-01-23T04:05:44;-1.20;99.90
18794;DHT22;29610;49.022;12.114;2023-01-23T04:08:14;-1.20;99.90
18794;DHT22;29610;49.022;12.114;2023-01-23T04:10:43;-1.30;99.90
18794;DHT22;29610;49.022;12.114;2023-01-23T04:13:15;-1.20;99.90
18794;DHT22;29610;49.022;12.114;2023-01-23T04:15:44;0.10;99.90
18794;DHT22;29610;49.022;12.114;2023-01-23T04:18:16;-1.30;99.90
18794;DHT22;29610;49.022;12.114;2023-01-23T04:20:44;-1.30;99.90
18794;DHT22;29610;49.022;12.114;2023-01-23T04:23:13;-1.30;99.90
18794;DHT22;29610;49.022;12.114;2023-01-23T04:25:42;-1.30;99.90
18794;DHT22;29610;49.022;12.114;2023-01-23T04:28:13;-0.90;99.90
18794;DHT22;29610;49.022;12.114;2023-01-23T04:30:43;-1.30;99.90
18794;DHT22;29610;49.022;12.114;2023-01-23T04:33:21;-1.30;99.90
18794;DHT22;29610;49.022;12.114;2023-01-23T04:35:52;-1.30;99.90
18794;DHT22;29610;49.022;12.114;2023-01-23T04:38:26;-1.30;99.90
18794;DHT22;29610;49.022;12.114;2023-01-23T04:40:59;-1.20;99.90
18794;DHT22;29610;49.022;12.114;2023-01-23T04:43:30;-1.20;99.90
18794;DHT22;29610;49.022;12.114;2023-01-23T04:45:59;-0.80;99.90
18794;DHT22;29610;49.022;12.114;2023-01-23T04:48:52;-0.90;99.90
18794;DHT22;29610;49.022;12.114;2023-01-23T04:51:22;-1.00;99.90
18794;DHT22;29610;49.022;12.114;2023-01-23T04:53:51;-1.00;99.90
18794;DHT22;29610;49.022;12.114;2023-01-23T04:56:19;-0.90;99.90
18794;DHT22;29610;49.022;12.114;2023-01-23T04:58:49;-0.80;99.90
18794;DHT22;29610;49.022;12.114;2023-01-23T05:01:20;-0.80;99.90
18794;DHT22;29610;49.022;12.114;2023-01-23T05:03:55;-0.80;99.90
18794;DHT22;29610;49.022;12.114;2023-01-23T05:06:24;-0.70;99.90
18794;DHT22;29610;49.022;12.114;2023-01-23T05:08:55;-0.80;99.90
18794;DHT22;29610;49.022;12.114;2023-01-23T05:11:36;-0.30;99.90
18794;DHT22;29610;49.022;12.114;2023-01-23T05:14:06;-0.70;99.90
18794;DHT22;29610;49.022;12.114;2023-01-23T05:16:34;-0.70;99.90
18794;DHT22;29610;49.022;12.114;2023-01-23T05:19:23;-0.60;99.90
18794;DHT22;29610;49.022;12.114;2023-01-23T05:21:53;-0.80;99.90
18794;DHT22;29610;49.022;12.114;2023-01-23T05:24:22;-0.80;99.90
18794;DHT22;29610;49.022;12.114;2023-01-23T05:26:54;-0.80;99.90
18794;DHT22;29610;49.022;12.114;2023-01-23T05:29:25;-0.90;99.90
18794;DHT22;29610;49.022;12.114;2023-01-23T05:32:11;-0.90;99.90
18794;DHT22;29610;49.022;12.114;2023-01-23T05:34:53;-0.90;99.90
18794;DHT22;29610;49.022;12.114;2023-01-23T05:37:25;-1.00;99.90
18794;DHT22;29610;49.022;12.114;2023-01-23T05:39:59;-0.80;99.90
18794;DHT22;29610;49.022;12.114;2023-01-23T05:42:48;-0.80;99.90
18794;DHT22;29610;49.022;12.114;2023-01-23T05:45:43;-0.90;99.90
18794;DHT22;29610;49.022;12.114;2023-01-23T05:48:23;-0.80;99.90
18794;DHT22;29610;49.022;12.114;2023-01-23T05:50:53;-0.80;99.90
18794;DHT22;29610;49.022;12.114;2023-01-23T05:53:22;-0.80;99.90
18794;DHT22;29610;49.022;12.114;2023-01-23T05:55:51;-0.90;99.90
18794;DHT22;29610;49.022;12.114;2023-01-23T05:58:21;-0.90;99.90
18794;DHT22;29610;49.022;12.114;2023-01-23T06:01:14;-0.90;99.90
18794;DHT22;29610;49.022;12.114;2023-01-23T06:04:02;-0.90;99.90
18794;DHT22;29610;49.022;12.114;2023-01-23T06:06:40;-0.80;99.90
18794;DHT22;29610;49.022;12.114;2023-01-23T06:09:11;-0.80;99.90
18794;DHT22;29610;49.022;12.114;2023-01-23T06:11:40;-0.80;99.90
18794;DHT22;29610;49.022;12.114;2023-01-23T06:14:09;-0.70;99.90
18794;DHT22;29610;49.022;12.114;2023-01-23T06:16:37;-0.80;99.90
18794;DHT22;29610;49.022;12.114;2023-01-23T06:19:07;-0.80;99.90
18794;DHT22;29610;49.022;12.114;2023-01-23T06:21:37;-0.70;99.90
18794;DHT22;29610;49.022;12.114;2023-01-23T06:24:08;-0.70;99.90
18794;DHT22;29610;49.022;12.114;2023-01-23T06:26:36;-0.20;99.90
18794;DHT22;29610;49.022;12.114;2023-01-23T06:29:06;-0.60;99.90
18794;DHT22;29610;49.022;12.114;2023-01-23T06:31:35;-0.50;99.90
18794;DHT22;29610;49.022;12.114;2023-01-23T06:34:04;-0.60;99.90
18794;DHT22;29610;49.022;12.114;2023-01-23T06:36:40;-0.50;99.90
18794;DHT22;29610;49.022;12.114;2023-01-23T06:39:12;-0.50;99.90
18794;DHT22;29610;49.022;12.114;2023-01-23T06:41:42;-0.50;99.90
18794;DHT22;29610;49.022;12.114;2023-01-23T06:44:17;-0.50;99.90
18794;DHT22;29610;49.022;12.114;2023-01-23T06:46:45;-0.50;99.90
18794;DHT22;29610;49.022;12.114;2023-01-23T06:49:14;-0.50;99.90
18794;DHT22;29610;49.022;12.114;2023-01-23T06:51:47;-0.50;99.90
18794;DHT22;29610;49.022;12.114;2023-01-23T06:54:17;-0.50;99.90
18794;DHT22;29610;49.022;12.114;2023-01-23T06:56:48;-0.40;99.90
18794;DHT22;29610;49.022;12.114;2023-01-23T06:59:18;-0.50;99.90
18794;DHT22;29610;49.022;12.114;2023-01-23T07:01:47;-0.50;99.90
18794;DHT22;29610;49.022;12.114;2023-01-23T07:04:39;-0.40;99.90
18794;DHT22;29610;49.022;12.114;2023-01-23T07:07:08;-0.30;99.90
18794;DHT22;29610;49.022;12.114;2023-01-23T07:09:39;-0.60;99.90
18794;DHT22;29610;49.022;12.114;2023-01-23T07:12:13;-0.60;99.90
18794;DHT22;29610;49.022;12.114;2023-01-23T07:14:42;-0.40;99.90
18794;DHT22;29610;49.022;12.114;2023-01-23T07:17:13;-0.50;99.90
18794;DHT22;29610;49.022;12.114;2023-01-23T07:19:42;-0.50;99.90
18794;DHT22;29610;49.022;12.114;2023-01-23T07:22:16;-0.50;99.90
18794;DHT22;29610;49.022;12.114;2023-01-23T07:24:50;-0.50;99.90
18794;DHT22;29610;49.022;12.114;2023-01-23T07:27:19;-0.40;99.90
18794;DHT22;29610;49.022;12.114;2023-01-23T07:29:50;-0.40;99.90
18794;DHT22;29610;49.022;12.114;2023-01-23T07:32:24;-0.40;99.90
18794;DHT22;29610;49.022;12.114;2023-01-23T07:34:53;-0.30;99.90
18794;DHT22;29610;49.022;12.114;2023-01-23T07:37:22;-0.30;99.90
18794;DHT22;29610;49.022;12.114;2023-01-23T07:39:52;-0.30;99.90
18794;DHT22;29610;49.022;12.114;2023-01-23T07:42:21;-0.30;99.90
18794;DHT22;29610;49.022;12.114;2023-01-23T07:44:51;0.10;99.90
18794;DHT22;29610;49.022;12.114;2023-01-23T07:47:20;-0.20;99.90
18794;DHT22;29610;49.022;12.114;2023-01-23T07:49:48;-0.20;99.90
18794;DHT22;29610;49.022;12.114;2023-01-23T07:52:17;-0.20;99.90
18794;DHT22;29610;49.022;12.114;2023-01-23T07:54:46;-0.10;99.90
18794;DHT22;29610;49.022;12.114;2023-01-23T07:57:16;-0.10;99.90
18794;DHT22;29610;49.022;12.114;2023-01-23T07:59:46;-0.10;99.90
18794;DHT22;29610;49.022;12.114;2023-01-23T08:02:15;0.00;99.90
18794;DHT22;29610;49.022;12.114;2023-01-23T08:04:43;0.20;99.90
18794;DHT22;29610;49.022;12.114;2023-01-23T08:07:12;0.00;99.90
18794;DHT22;29610;49.022;12.114;2023-01-23T08:09:41;0.10;99.90
18794;DHT22;29610;49.022;12.114;2023-01-23T08:12:10;0.20;99.90
18794;DHT22;29610;49.022;12.114;2023-01-23T08:14:40;0.20;99.90
18794;DHT22;29610;49.022;12.114;2023-01-23T08:17:09;0.30;99.90
18794;DHT22;29610;49.022;12.114;2023-01-23T08:19:38;0.50;99.90
18794;DHT22;29610;49.022;12.114;2023-01-23T08:22:06;0.60;99.90
18794;DHT22;29610;49.022;12.114;2023-01-23T08:24:35;0.60;99.90
18794;DHT22;29610;49.022;12.114;2023-01-23T08:27:04;0.70;99.90
18794;DHT22;29610;49.022;12.114;2023-01-23T08:29:33;1.00;99.90
18794;DHT22;29610;49.022;12.114;2023-01-23T08:32:04;0.80;99.90
18794;DHT22;29610;49.022;12.114;2023-01-23T08:34:33;0.70;99.90
18794;DHT22;29610;49.022;12.114;2023-01-23T08:37:02;0.80;99.90
18794;DHT22;29610;49.022;12.114;2023-01-23T08:39:31;0.60;99.90
18794;DHT22;29610;49.022;12.114;2023-01-23T08:41:59;0.50;99.90
18794;DHT22;29610;49.022;12.114;2023-01-23T08:44:28;0.50;99.90
18794;DHT22;29610;49.022;12.114;2023-01-23T08:47:00;0.50;99.90
18794;DHT22;29610;49.022;12.114;2023-01-23T08:49:30;0.50;99.90
18794;DHT22;29610;49.022;12.114;2023-01-23T08:51:59;0.50;99.90
18794;DHT22;29610;49.022;12.114;2023-01-23T08:54:28;0.50;99.90
18794;DHT22;29610;49.022;12.114;2023-01-23T08:56:57;0.60;99.90
18794;DHT22;29610;49.022;12.114;2023-01-23T08:59:26;0.80;99.90
18794;DHT22;29610;49.022;12.114;2023-01-23T09:01:55;1.00;99.90
18794;DHT22;29610;49.022;12.114;2023-01-23T09:04:24;1.10;99.90
18794;DHT22;29610;49.022;12.114;2023-01-23T09:06:54;1.50;99.90
18794;DHT22;29610;49.022;12.114;2023-01-23T09:09:23;1.70;99.90
18794;DHT22;29610;49.022;12.114;2023-01-23T09:11:53;1.30;99.90
18794;DHT22;29610;49.022;12.114;2023-01-23T09:14:22;1.20;99.90
18794;DHT22;29610;49.022;12.114;2023-01-23T09:16:51;1.70;99.90
18794;DHT22;29610;49.022;12.114;2023-01-23T09:19:20;1.20;99.90
18794;DHT22;29610;49.022;12.114;2023-01-23T09:21:51;1.10;99.90
18794;DHT22;29610;49.022;12.114;2023-01-23T09:24:24;1.10;99.90
18794;DHT22;29610;49.022;12.114;2023-01-23T09:26:53;1.20;99.90
18794;DHT22;29610;49.022;12.114;2023-01-23T09:29:22;1.10;99.90
18794;DHT22;29610;49.022;12.114;2023-01-23T09:31:50;1.00;99.90
18794;DHT22;29610;49.022;12.114;2023-01-23T09:34:21;0.90;99.90
18794;DHT22;29610;49.022;12.114;2023-01-23T09:36:51;1.00;99.90
18794;DHT22;29610;49.022;12.114;2023-01-23T09:39:20;1.00;99.90
18794;DHT22;29610;49.022;12.114;2023-01-23T09:41:50;1.00;99.90
18794;DHT22;29610;49.022;12.114;2023-01-23T09:44:28;1.00;99.90
18794;DHT22;29610;49.022;12.114;2023-01-23T09:47:06;1.20;99.90
18794;DHT22;29610;49.022;12.114;2023-01-23T09:49:43;1.10;99.90
18794;DHT22;29610;49.022;12.114;2023-01-23T09:52:15;1.10;99.90
18794;DHT22;29610;49.022;12.114;2023-01-23T09:54:49;1.10;99.90
18794;DHT22;29610;49.022;12.114;2023-01-23T09:57:27;1.20;99.90
18794;DHT22;29610;49.022;12.114;2023-01-23T10:00:04;1.20;99.90
18794;DHT22;29610;49.022;12.114;2023-01-23T10:02:41;1.30;99.90
18794;DHT22;29610;49.022;12.114;2023-01-23T10:05:12;1.40;99.90
18794;DHT22;29610;49.022;12.114;2023-01-23T10:07:50;1.40;99.90
18794;DHT22;29610;49.022;12.114;2023-01-23T10:10:53;1.40;99.90
18794;DHT22;29610;49.022;12.114;2023-01-23T10:13:46;1.50;99.90
18794;DHT22;29610;49.022;12.114;2023-01-23T10:16:30;1.50;99.90
18794;DHT22;29610;49.022;12.114;2023-01-23T10:19:30;1.70;99.90
18794;DHT22;29610;49.022;12.114;2023-01-23T10:22:23;1.80;99.90
18794;DHT22;29610;49.022;12.114;2023-01-23T10:25:08;2.00;99.90
18794;DHT22;29610;49.022;12.114;2023-01-23T10:27:44;2.10;99.90
18794;DHT22;29610;49.022;12.114;2023-01-23T10:30:26;2.00;99.90
18794;DHT22;29610;49.022;12.114;2023-01-23T10:32:59;2.00;99.90
18794;DHT22;29610;49.022;12.114;2023-01-23T10:35:35;2.00;99.90
18794;DHT22;29610;49.022;12.114;2023-01-23T10:38:23;2.30;99.90
18794;DHT22;29610;49.022;12.114;2023-01-23T10:40:58;2.10;99.90
18794;DHT22;29610;49.022;12.114;2023-01-23T10:43:51;2.00;99.90
18794;DHT22;29610;49.022;12.114;2023-01-23T10:46:33;2.00;99.90
18794;DHT22;29610;49.022;12.114;2023-01-23T10:49:09;2.00;99.90
18794;DHT22;29610;49.022;12.114;2023-01-23T10:51:45;1.90;99.90
18794;DHT22;29610;49.022;12.114;2023-01-23T10:54:17;2.00;99.90
18794;DHT22;29610;49.022;12.114;2023-01-23T10:57:00;1.90;99.90
18794;DHT22;29610;49.022;12.114;2023-01-23T10:59:33;2.00;99.90
18794;DHT22;29610;49.022;12.114;2023-01-23T11:02:20;2.00;99.90
18794;DHT22;29610;49.022;12.114;2023-01-23T11:04:54;2.10;99.90
18794;DHT22;29610;49.022;12.114;2023-01-23T11:07:24;2.10;99.90
18794;DHT22;29610;49.022;12.114;2023-01-23T11:09:56;2.00;99.90
18794;DHT22;29610;49.022;12.114;2023-01-23T11:12:29;2.00;99.90
18794;DHT22;29610;49.022;12.114;2023-01-23T11:15:18;2.00;99.90
18794;DHT22;29610;49.022;12.114;2023-01-23T11:17:52;1.90;99.90
18794;DHT22;29610;49.022;12.114;2023-01-23T11:20:26;2.00;99.90
18794;DHT22;29610;49.022;12.114;2023-01-23T11:23:12;2.00;99.90
18794;DHT22;29610;49.022;12.114;2023-01-23T11:25:45;2.20;99.90
18794;DHT22;29610;49.022;12.114;2023-01-23T11:28:19;2.20;99.90
18794;DHT22;29610;49.022;12.114;2023-01-23T11:30:56;2.20;99.90
18794;DHT22;29610;49.022;12.114;2023-01-23T11:33:49;2.30;99.90
18794;DHT22;29610;49.022;12.114;2023-01-23T11:36:35;2.20;99.90
18794;DHT22;29610;49.022;12.114;2023-01-23T11:39:18;2.20;99.90
18794;DHT22;29610;49.022;12.114;2023-01-23T11:41:53;2.10;99.90
18794;DHT22;29610;49.022;12.114;2023-01-23T11:44:22;2.10;99.90
18794;DHT22;29610;49.022;12.114;2023-01-23T11:47:11;2.20;99.90
18794;DHT22;29610;49.022;12.114;2023-01-23T11:50:07;2.40;99.90
18794;DHT22;29610;49.022;12.114;2023-01-23T11:52:50;2.60;99.90
18794;DHT22;29610;49.022;12.114;2023-01-23T11:55:37;2.60;99.90
18794;DHT22;29610;49.022;12.114;2023-01-23T11:58:22;2.70;99.90
18794;DHT22;29610;49.022;12.114;2023-01-23T12:01:16;2.70;99.90
18794;DHT22;29610;49.022;12.114;2023-01-23T12:07:25;2.70;99.90
18794;DHT22;29610;49.022;12.114;2023-01-23T12:10:02;3.10;99.90
18794;DHT22;29610;49.022;12.114;2023-01-23T12:13:05;2.60;99.90
18794;DHT22;29610;49.022;12.114;2023-01-23T12:15:55;2.40;99.90
18794;DHT22;29610;49.022;12.114;2023-01-23T12:18:43;2.30;99.90
18794;DHT22;29610;49.022;12.114;2023-01-23T12:21:31;2.30;99.90
18794;DHT22;29610;49.022;12.114;2023-01-23T12:24:16;2.40;99.90
18794;DHT22;29610;49.022;12.114;2023-01-23T12:26:59;2.40;99.90
18794;DHT22;29610;49.022;12.114;2023-01-23T12:29:48;2.50;99.90
18794;DHT22;29610;49.022;12.114;2023-01-23T12:32:42;2.70;99.90
18794;DHT22;29610;49.022;12.114;2023-01-23T12:35:34;2.70;99.90
18794;DHT22;29610;49.022;12.114;2023-01-23T12:38:27;2.80;99.90
18794;DHT22;29610;49.022;12.114;2023-01-23T12:41:11;2.70;99.90
18794;DHT22;29610;49.022;12.114;2023-01-23T12:43:53;2.70;99.90
18794;DHT22;29610;49.022;12.114;2023-01-23T12:46:34;2.70;99.90
18794;DHT22;29610;49.022;12.114;2023-01-23T12:49:17;2.60;99.90
18794;DHT22;29610;49.022;12.114;2023-01-23T12:51:54;2.50;99.90
18794;DHT22;29610;49.022;12.114;2023-01-23T12:54:34;2.50;99.90
18794;DHT22;29610;49.022;12.114;2023-01-23T12:57:12;2.50;99.90
18794;DHT22;29610;49.022;12.114;2023-01-23T13:00:35;2.50;99.90
18794;DHT22;29610;49.022;12.114;2023-01-23T13:06:39;2.50;99.90
18794;DHT22;29610;49.022;12.114;2023-01-23T13:09:25;2.40;99.90
18794;DHT22;29610;49.022;12.114;2023-01-23T13:12:05;2.40;99.90
18794;DHT22;29610;49.022;12.114;2023-01-23T13:14:50;3.90;99.90
18794;DHT22;29610;49.022;12.114;2023-01-23T13:17:43;2.60;99.90
18794;DHT22;29610;49.022;12.114;2023-01-23T13:20:21;2.70;99.90
18794;DHT22;29610;49.022;12.114;2023-01-23T13:23:21;3.00;99.90
18794;DHT22;29610;49.022;12.114;2023-01-23T13:26:23;3.10;99.90
18794;DHT22;29610;49.022;12.114;2023-01-23T13:28:58;2.80;99.90
18794;DHT22;29610;49.022;12.114;2023-01-23T13:31:38;2.70;99.90
18794;DHT22;29610;49.022;12.114;2023-01-23T13:34:34;2.90;99.90
18794;DHT22;29610;49.022;12.114;2023-01-23T13:40:21;2.60;99.90
18794;DHT22;29610;49.022;12.114;2023-01-23T13:42:52;2.60;99.90
18794;DHT22;29610;49.022;12.114;2023-01-23T13:45:32;2.70;99.90
18794;DHT22;29610;49.022;12.114;2023-01-23T13:51:49;2.70;99.90
18794;DHT22;29610;49.022;12.114;2023-01-23T13:54:31;2.60;99.90
18794;DHT22;29610;49.022;12.114;2023-01-23T13:57:35;2.60;99.90
18794;DHT22;29610;49.022;12.114;2023-01-23T14:00:19;2.60;99.90
18794;DHT22;29610;49.022;12.114;2023-01-23T14:03:23;2.70;99.90
18794;DHT22;29610;49.022;12.114;2023-01-23T14:06:34;3.20;99.90
18794;DHT22;29610;49.022;12.114;2023-01-23T14:16:33;2.70;99.90
18794;DHT22;29610;49.022;12.114;2023-01-23T14:19:22;2.60;99.90
18794;DHT22;29610;49.022;12.114;2023-01-23T14:22:09;2.60;99.90
18794;DHT22;29610;49.022;12.114;2023-01-23T14:24:43;2.50;99.90
18794;DHT22;29610;49.022;12.114;2023-01-23T14:27:18;2.50;99.90
18794;DHT22;29610;49.022;12.114;2023-01-23T14:29:57;2.90;99.90
18794;DHT22;29610;49.022;12.114;2023-01-23T14:32:31;2.50;99.90
18794;DHT22;29610;49.022;12.114;2023-01-23T14:35:00;3.50;99.90
18794;DHT22;29610;49.022;12.114;2023-01-23T14:37:31;2.50;99.90
18794;DHT22;29610;49.022;12.114;2023-01-23T14:40:04;2.40;99.90
18794;DHT22;29610;49.022;12.114;2023-01-23T14:42:57;2.40;99.90
18794;DHT22;29610;49.022;12.114;2023-01-23T14:45:30;2.40;99.90
18794;DHT22;29610;49.022;12.114;2023-01-23T14:48:03;3.40;99.90
18794;DHT22;29610;49.022;12.114;2023-01-23T14:50:34;3.00;99.90
18794;DHT22;29610;49.022;12.114;2023-01-23T14:53:05;2.50;99.90
18794;DHT22;29610;49.022;12.114;2023-01-23T14:55:40;2.30;99.90
18794;DHT22;29610;49.022;12.114;2023-01-23T14:58:19;2.50;99.90
18794;DHT22;29610;49.022;12.114;2023-01-23T15:00:51;2.30;99.90
18794;DHT22;29610;49.022;12.114;2023-01-23T15:03:36;2.10;99.90
18794;DHT22;29610;49.022;12.114;2023-01-23T15:06:10;2.10;99.90
18794;DHT22;29610;49.022;12.114;2023-01-23T15:08:42;2.10;99.90
18794;DHT22;29610;49.022;12.114;2023-01-23T15:11:11;2.00;99.90
18794;DHT22;29610;49.022;12.114;2023-01-23T15:13:43;2.00;99.90
18794;DHT22;29610;49.022;12.114;2023-01-23T15:16:20;2.00;99.90
18794;DHT22;29610;49.022;12.114;2023-01-23T15:19:02;2.10;99.90
18794;DHT22;29610;49.022;12.114;2023-01-23T15:21:37;1.90;99.90
18794;DHT22;29610;49.022;12.114;2023-01-23T15:24:26;2.00;99.90
18794;DHT22;29610;49.022;12.114;2023-01-23T15:27:22;1.70;99.90
18794;DHT22;29610;49.022;12.114;2023-01-23T15:30:36;1.80;99.90
18794;DHT22;29610;49.022;12.114;2023-01-23T15:33:24;1.80;99.90
18794;DHT22;29610;49.022;12.114;2023-01-23T15:36:05;1.70;99.90
18794;DHT22;29610;49.022;12.114;2023-01-23T15:38:36;1.70;99.90
18794;DHT22;29610;49.022;12.114;2023-01-23T15:41:08;1.70;99.90
18794;DHT22;29610;49.022;12.114;2023-01-23T15:43:37;1.70;99.90
18794;DHT22;29610;49.022;12.114;2023-01-23T15:46:08;1.70;99.90
18794;DHT22;29610;49.022;12.114;2023-01-23T15:48:38;1.70;99.90
18794;DHT22;29610;49.022;12.114;2023-01-23T15:51:10;2.00;99.90
18794;DHT22;29610;49.022;12.114;2023-01-23T15:53:39;1.60;99.90
18794;DHT22;29610;49.022;12.114;2023-01-23T15:56:21;1.70;99.90
18794;DHT22;29610;49.022;12.114;2023-01-23T15:58:55;1.70;99.90
18794;DHT22;29610;49.022;12.114;2023-01-23T16:01:25;1.70;99.90
18794;DHT22;29610;49.022;12.114;2023-01-23T16:03:54;1.70;99.90
18794;DHT22;29610;49.022;12.114;2023-01-23T16:06:24;1.60;99.90
18794;DHT22;29610;49.022;12.114;2023-01-23T16:08:53;1.60;99.90
18794;DHT22;29610;49.022;12.114;2023-01-23T16:11:33;1.60;99.90
18794;DHT22;29610;49.022;12.114;2023-01-23T16:14:04;1.60;99.90
18794;DHT22;29610;49.022;12.114;2023-01-23T16:16:33;1.60;99.90
18794;DHT22;29610;49.022;12.114;2023-01-23T16:19:02;1.60;99.90
18794;DHT22;29610;49.022;12.114;2023-01-23T16:21:32;1.60;99.90
18794;DHT22;29610;49.022;12.114;2023-01-23T16:24:01;1.60;99.90
18794;DHT22;29610;49.022;12.114;2023-01-23T16:26:33;1.60;99.90
18794;DHT22;29610;49.022;12.114;2023-01-23T16:29:01;1.60;99.90
18794;DHT22;29610;49.022;12.114;2023-01-23T16:31:40;1.60;99.90
18794;DHT22;29610;49.022;12.114;2023-01-23T16:34:09;1.60;99.90